Time;durP1;ratioP1;P1;durP2;ratioP2;P2;SDS_P1;SDS_P2;PMS_P1;PMS_P2;Temp;Humidity;BMP_temperature;BMP_pressure;BME280_temperature;BME280_humidity;BME280_pressure;Samples;Min_cycle;Max_cycle;Signal;HPM_P1;HPM_P2
2023/01/31 00:00:12;;;;;;;32.88;7.90;;;6.00;99.90;;;;;;2090446;28;20075;-70
2023/01/31 00:01:16;;;;;;;27.10;7.28;;;6.00;99.90;;;;;;2091602;28;20048;-70
2023/01/31 00:02:16;;;;;;;33.90;8.38;;;6.00;99.90;;;;;;2093910;28;20387;-70
2023/01/31 00:03:17;;;;;;;28.30;7.30;;;6.00;99.90;;;;;;2094144;28;20051;-70
2023/01/31 00:04:17;;;;;;;34.60;8.20;;;6.00;99.90;;;;;;2092778;28;20446;-70
2023/01/31 00:05:18;;;;;;;26.30;7.90;;;6.00;99.90;;;;;;2094698;28;20051;-70
2023/01/31 00:06:22;;;;;;;30.65;7.57;;;6.00;99.90;;;;;;2093118;28;20024;-70
2023/01/31 00:07:22;;;;;;;28.52;6.97;;;6.00;99.90;;;;;;2091340;28;20029;-70
2023/01/31 00:08:23;;;;;;;31.17;6.88;;;5.90;99.90;;;;;;2092770;28;20024;-70
2023/01/31 00:09:23;;;;;;;27.58;7.60;;;5.90;99.90;;;;;;2092112;28;20099;-70
2023/01/31 00:10:24;;;;;;;28.75;7.63;;;5.90;99.90;;;;;;2093353;28;20123;-70
2023/01/31 00:11:27;;;;;;;22.92;7.38;;;5.90;99.90;;;;;;2093993;28;20028;-70
2023/01/31 00:12:27;;;;;;;32.92;7.43;;;5.90;99.90;;;;;;2092446;28;20112;-70
2023/01/31 00:13:28;;;;;;;34.60;7.90;;;5.90;99.90;;;;;;2093384;28;20028;-70
2023/01/31 00:14:28;;;;;;;29.90;7.32;;;5.90;99.90;;;;;;2090545;28;20111;-70
2023/01/31 00:15:29;;;;;;;31.13;7.13;;;5.90;99.90;;;;;;2091907;28;20039;-70
2023/01/31 00:16:30;;;;;;;21.50;7.10;;;5.90;99.90;;;;;;2092566;28;20412;-70
2023/01/31 00:17:30;;;;;;;26.73;7.00;;;5.90;99.90;;;;;;2093024;28;20025;-70
2023/01/31 00:18:31;;;;;;;25.75;7.22;;;5.90;99.90;;;;;;2092052;28;20024;-70
2023/01/31 00:19:31;;;;;;;30.20;7.22;;;5.90;99.90;;;;;;2089548;28;20124;-70
2023/01/31 00:20:32;;;;;;;25.70;7.18;;;5.90;99.90;;;;;;2092170;28;20083;-70
2023/01/31 00:21:32;;;;;;;23.23;7.40;;;5.80;99.90;;;;;;2092242;28;20112;-70
2023/01/31 00:22:33;;;;;;;26.98;6.85;;;5.80;99.90;;;;;;2092181;28;20033;-70
2023/01/31 00:23:34;;;;;;;30.02;7.45;;;5.80;99.90;;;;;;2092007;28;20040;-70
2023/01/31 00:24:34;;;;;;;30.80;7.25;;;5.80;99.90;;;;;;2091436;28;20020;-70
2023/01/31 00:25:35;;;;;;;22.35;6.45;;;5.80;99.90;;;;;;2091594;28;20472;-70
2023/01/31 00:26:35;;;;;;;33.70;7.40;;;5.80;99.90;;;;;;2092060;28;20078;-70
2023/01/31 00:27:36;;;;;;;24.42;7.72;;;5.80;99.90;;;;;;2091643;28;20033;-70
2023/01/31 00:28:37;;;;;;;33.63;8.20;;;5.80;99.90;;;;;;2092937;28;20776;-70
2023/01/31 00:29:37;;;;;;;27.35;7.25;;;5.80;99.90;;;;;;2089391;28;20440;-70
2023/01/31 00:30:38;;;;;;;29.85;6.93;;;5.80;99.90;;;;;;2092491;28;20159;-70
2023/01/31 00:31:39;;;;;;;29.15;6.88;;;5.80;99.90;;;;;;2094378;28;20032;-70
2023/01/31 00:32:39;;;;;;;33.20;7.10;;;5.80;99.90;;;;;;2093000;28;20021;-70
2023/01/31 00:33:41;;;;;;;27.20;6.95;;;5.80;99.90;;;;;;2091793;28;20039;-70
2023/01/31 00:34:42;;;;;;;31.42;6.57;;;5.80;99.90;;;;;;2092886;28;20056;-70
2023/01/31 00:35:42;;;;;;;30.30;7.22;;;5.80;99.90;;;;;;2093693;28;20029;-70
2023/01/31 00:36:43;;;;;;;29.70;6.57;;;5.80;99.90;;;;;;2092718;28;20396;-70
2023/01/31 00:37:44;;;;;;;28.83;6.60;;;5.70;99.90;;;;;;2093607;28;20388;-70
2023/01/31 00:38:50;;;;;;;39.40;8.23;;;5.70;99.90;;;;;;2090893;28;20025;-70
2023/01/31 00:39:51;;;;;;;26.27;6.80;;;5.70;99.90;;;;;;2091267;28;20036;-70
2023/01/31 00:40:53;;;;;;;31.23;6.47;;;5.70;99.90;;;;;;2093251;28;20091;-70
2023/01/31 00:41:53;;;;;;;29.33;6.22;;;5.70;99.90;;;;;;2088669;28;20128;-70
2023/01/31 00:42:54;;;;;;;32.92;6.80;;;5.70;99.90;;;;;;2093633;28;20024;-70
2023/01/31 00:43:54;;;;;;;27.45;7.03;;;5.70;99.90;;;;;;2091168;28;20028;-70
2023/01/31 00:44:55;;;;;;;33.88;7.28;;;5.70;99.90;;;;;;2091434;28;20598;-70
2023/01/31 00:45:56;;;;;;;31.95;7.18;;;5.70;99.90;;;;;;2093407;28;20039;-70
2023/01/31 00:46:56;;;;;;;28.95;6.40;;;5.70;99.90;;;;;;2092435;28;20560;-70
2023/01/31 00:47:57;;;;;;;27.90;7.45;;;5.80;99.90;;;;;;2091005;28;20021;-70
2023/01/31 00:48:58;;;;;;;28.38;6.88;;;5.70;99.90;;;;;;2094167;28;20107;-70
2023/01/31 00:49:59;;;;;;;25.67;6.55;;;5.70;99.90;;;;;;2091294;28;20497;-70
2023/01/31 00:50:59;;;;;;;21.90;6.18;;;5.70;99.90;;;;;;2092051;28;20389;-70
2023/01/31 00:52:00;;;;;;;24.58;6.38;;;5.70;99.90;;;;;;2090490;28;21358;-70
2023/01/31 00:53:01;;;;;;;26.35;6.05;;;5.70;99.90;;;;;;2094307;28;20025;-70
2023/01/31 00:54:01;;;;;;;30.20;6.43;;;5.70;99.90;;;;;;2091748;28;20032;-70
2023/01/31 00:55:02;;;;;;;18.40;5.95;;;5.80;99.90;;;;;;2092937;28;20052;-70
2023/01/31 00:56:08;;;;;;;27.15;6.63;;;5.70;99.90;;;;;;2091483;28;21051;-70
2023/01/31 00:57:09;;;;;;;26.73;6.65;;;5.80;99.90;;;;;;2090746;28;20141;-70
2023/01/31 00:58:10;;;;;;;25.45;6.38;;;5.80;99.90;;;;;;2091226;28;20033;-70
2023/01/31 00:59:10;;;;;;;26.95;6.57;;;5.80;99.90;;;;;;2092730;28;20036;-70
2023/01/31 01:00:11;;;;;;;28.23;6.13;;;5.80;99.90;;;;;;2091802;28;20126;-70
2023/01/31 01:01:13;;;;;;;27.70;6.47;;;5.80;99.90;;;;;;2090981;28;20033;-70
2023/01/31 01:02:14;;;;;;;24.27;5.78;;;5.80;99.90;;;;;;2091986;28;20033;-70
2023/01/31 01:03:14;;;;;;;22.10;6.05;;;5.80;99.90;;;;;;2090493;28;20033;-70
2023/01/31 01:04:15;;;;;;;32.50;6.50;;;5.80;99.90;;;;;;2095024;28;20033;-70
2023/01/31 01:05:16;;;;;;;28.33;6.22;;;5.80;99.90;;;;;;2095349;28;20048;-70
2023/01/31 01:06:16;;;;;;;30.27;7.00;;;5.80;99.90;;;;;;2090713;28;20036;-70
2023/01/31 01:07:17;;;;;;;32.25;6.13;;;5.80;99.90;;;;;;2091791;28;20036;-70
2023/01/31 01:08:17;;;;;;;24.48;6.53;;;5.90;99.90;;;;;;2093068;28;20491;-70
2023/01/31 01:09:18;;;;;;;23.33;6.10;;;5.90;99.90;;;;;;2092215;28;20432;-70
2023/01/31 01:10:18;;;;;;;24.63;5.97;;;5.90;99.90;;;;;;2085963;28;20455;-70
2023/01/31 01:11:23;;;;;;;27.75;6.65;;;5.90;99.90;;;;;;2095209;28;20029;-70
2023/01/31 01:12:23;;;;;;;28.90;6.20;;;5.90;99.90;;;;;;2089730;28;20024;-70
2023/01/31 01:13:24;;;;;;;29.67;6.07;;;5.90;99.90;;;;;;2092085;28;20098;-70
2023/01/31 01:14:24;;;;;;;25.63;6.35;;;5.90;99.90;;;;;;2088850;28;20029;-70
2023/01/31 01:15:25;;;;;;;26.55;6.75;;;5.90;99.90;;;;;;2090288;28;20029;-70
2023/01/31 01:16:32;;;;;;;28.67;6.18;;;5.90;99.90;;;;;;2090965;28;20569;-71
2023/01/31 01:17:32;;;;;;;30.52;6.78;;;5.90;99.90;;;;;;2091302;28;20037;-70
2023/01/31 01:18:34;;;;;;;23.13;5.88;;;5.90;99.90;;;;;;2093220;28;20063;-70
2023/01/31 01:19:35;;;;;;;20.20;5.15;;;5.90;99.90;;;;;;2090125;28;20032;-70
2023/01/31 01:20:35;;;;;;;23.30;5.65;;;5.90;99.90;;;;;;2092622;28;20037;-70
2023/01/31 01:21:38;;;;;;;21.77;6.07;;;6.00;99.90;;;;;;2090303;28;20147;-70
2023/01/31 01:22:38;;;;;;;26.30;6.38;;;6.00;99.90;;;;;;2090638;28;20032;-70
2023/01/31 01:23:39;;;;;;;27.77;6.50;;;6.00;99.90;;;;;;2092651;28;20040;-70
2023/01/31 01:24:41;;;;;;;28.90;6.38;;;6.00;99.90;;;;;;2093132;28;20075;-70
2023/01/31 01:25:43;;;;;;;25.15;5.35;;;6.00;99.90;;;;;;2084431;28;20393;-70
2023/01/31 01:26:44;;;;;;;25.73;6.10;;;6.00;99.90;;;;;;2091672;28;20050;-70
2023/01/31 01:27:45;;;;;;;29.00;6.70;;;6.00;99.90;;;;;;2091019;28;20070;-70
2023/01/31 01:28:46;;;;;;;25.70;7.30;;;6.00;99.90;;;;;;2091424;28;20032;-70
2023/01/31 01:29:47;;;;;;;30.60;6.53;;;6.00;99.90;;;;;;2089794;28;20115;-70
2023/01/31 01:30:47;;;;;;;30.05;6.68;;;6.00;99.90;;;;;;2092174;28;20021;-70
2023/01/31 01:31:48;;;;;;;31.05;7.15;;;6.00;99.90;;;;;;2095553;28;20522;-70
2023/01/31 01:32:48;;;;;;;23.27;6.15;;;6.00;99.90;;;;;;2093231;28;20492;-70
2023/01/31 01:33:49;;;;;;;27.52;8.00;;;6.00;99.90;;;;;;2090022;28;20396;-70
2023/01/31 01:34:49;;;;;;;25.30;5.88;;;6.00;99.90;;;;;;2090979;28;20400;-70
2023/01/31 01:35:50;;;;;;;27.65;6.55;;;6.00;99.90;;;;;;2091085;28;20388;-70
2023/01/31 01:36:50;;;;;;;23.88;6.65;;;6.00;99.90;;;;;;2091910;28;20454;-70
2023/01/31 01:37:51;;;;;;;27.58;6.40;;;6.00;99.90;;;;;;2093330;28;20484;-70
2023/01/31 01:38:52;;;;;;;29.63;6.13;;;6.00;99.90;;;;;;2089616;28;20384;-70
2023/01/31 01:39:52;;;;;;;23.08;5.55;;;6.00;99.90;;;;;;2090428;28;20029;-70
2023/01/31 01:40:53;;;;;;;26.98;5.93;;;6.00;99.90;;;;;;2092809;28;20025;-70
2023/01/31 01:41:54;;;;;;;27.75;6.82;;;6.00;99.90;;;;;;2090654;28;20050;-70
2023/01/31 01:42:55;;;;;;;25.33;5.63;;;6.00;99.90;;;;;;2090674;28;20526;-70
2023/01/31 01:43:58;;;;;;;27.15;7.25;;;6.00;99.90;;;;;;2090176;28;20094;-70
2023/01/31 01:45:00;;;;;;;31.65;6.85;;;6.00;99.90;;;;;;2092657;28;20064;-70
2023/01/31 01:46:01;;;;;;;20.90;5.60;;;6.00;99.90;;;;;;2091871;28;20020;-70
2023/01/31 01:47:01;;;;;;;26.40;5.95;;;6.00;99.90;;;;;;2090897;28;20043;-70
2023/01/31 01:48:07;;;;;;;22.05;5.78;;;6.00;99.90;;;;;;2090349;28;20575;-70
2023/01/31 01:49:33;;;;;;;25.60;6.07;;;6.00;99.90;;;;;;2091848;28;20032;-70
2023/01/31 01:50:38;;;;;;;27.08;7.35;;;5.90;99.90;;;;;;2092730;28;20044;-70
2023/01/31 01:51:40;;;;;;;32.00;6.57;;;5.90;99.90;;;;;;2092956;28;20032;-70
2023/01/31 01:52:53;;;;;;;24.75;5.68;;;5.90;99.90;;;;;;2091009;28;20025;-70
2023/01/31 01:53:58;;;;;;;23.48;6.20;;;5.90;99.90;;;;;;2094040;28;20040;-70
2023/01/31 01:55:22;;;;;;;33.15;7.28;;;5.90;99.90;;;;;;2082933;28;20016;-70
2023/01/31 01:56:27;;;;;;;23.70;5.53;;;5.90;99.90;;;;;;2086444;28;20039;-70
2023/01/31 01:57:36;;;;;;;28.13;5.85;;;5.80;99.90;;;;;;2090597;28;20029;-70
2023/01/31 01:58:52;;;;;;;25.20;6.40;;;5.80;99.90;;;;;;2089214;28;20040;-70
2023/01/31 02:00:08;;;;;;;25.75;6.55;;;5.80;99.90;;;;;;2091184;28;20036;-70
2023/01/31 02:01:12;;;;;;;25.65;5.85;;;5.80;99.90;;;;;;2091613;28;20528;-70
2023/01/31 02:02:14;;;;;;;24.13;5.53;;;5.80;99.90;;;;;;2091650;28;20434;-70
2023/01/31 02:03:15;;;;;;;23.30;5.53;;;5.80;99.90;;;;;;2091785;28;20525;-70
2023/01/31 02:04:21;;;;;;;25.23;6.35;;;5.80;99.90;;;;;;2089984;28;20036;-70
2023/01/31 02:05:28;;;;;;;22.55;6.38;;;5.80;99.90;;;;;;2091538;28;20025;-70
2023/01/31 02:06:28;;;;;;;22.15;6.20;;;5.80;99.90;;;;;;2090330;28;20397;-70
2023/01/31 02:56:13;;;;;;;18.88;5.57;;;5.50;99.90;;;;;;2090690;28;20036;-71
2023/01/31 02:56:13;;;;;;;24.80;6.40;;;5.50;99.90;;;;;;2091725;28;20021;-70
2023/01/31 02:57:15;;;;;;;24.05;6.88;;;5.50;99.90;;;;;;2092684;28;20060;-71
2023/01/31 02:58:18;;;;;;;30.50;6.43;;;5.50;99.90;;;;;;2092566;28;20112;-71
2023/01/31 02:59:24;;;;;;;26.35;6.97;;;5.50;99.90;;;;;;2091836;28;20024;-71
2023/01/31 03:00:28;;;;;;;27.05;6.70;;;5.60;99.90;;;;;;2091460;28;20029;-70
2023/01/31 03:01:35;;;;;;;24.25;5.97;;;5.60;99.90;;;;;;2091567;28;20120;-70
2023/01/31 03:02:36;;;;;;;25.42;7.15;;;5.60;99.90;;;;;;2093434;28;20029;-70
2023/01/31 03:03:37;;;;;;;26.42;7.40;;;5.50;99.90;;;;;;2092744;28;20048;-70
2023/01/31 03:04:40;;;;;;;29.02;7.75;;;5.60;99.90;;;;;;2092953;28;20040;-70
2023/01/31 03:05:41;;;;;;;25.77;6.38;;;5.60;99.90;;;;;;2091717;28;20052;-70
2023/01/31 03:06:53;;;;;;;25.83;6.75;;;5.60;99.90;;;;;;2091900;28;20082;-71
2023/01/31 03:07:59;;;;;;;23.30;5.95;;;5.60;99.90;;;;;;2094405;28;20780;-71
2023/01/31 03:09:25;;;;;;;26.10;6.25;;;5.60;99.90;;;;;;2093337;28;20041;-71
2023/01/31 03:10:53;;;;;;;23.00;6.32;;;5.60;99.90;;;;;;2092348;28;20485;-70
2023/01/31 03:12:19;;;;;;;25.77;7.10;;;5.60;99.90;;;;;;2093653;28;20138;-70
2023/01/31 03:13:33;;;;;;;19.58;6.20;;;5.60;99.90;;;;;;2093793;28;20100;-70
2023/01/31 03:14:47;;;;;;;23.27;6.30;;;5.60;99.90;;;;;;2093888;28;20044;-70
2023/01/31 03:17:44;;;;;;;26.23;6.80;;;5.60;99.90;;;;;;2089540;28;20041;-70
2023/01/31 03:18:56;;;;;;;24.77;6.55;;;5.60;99.90;;;;;;2091733;28;20037;-71
2023/01/31 03:20:16;;;;;;;23.02;6.60;;;5.60;99.90;;;;;;2091412;28;20396;-71
2023/01/31 03:21:39;;;;;;;24.70;5.60;;;5.60;99.90;;;;;;2093812;28;20073;-71
2023/01/31 03:22:44;;;;;;;25.08;5.97;;;5.60;99.90;;;;;;2092846;28;20056;-71
2023/01/31 03:23:48;;;;;;;24.52;6.70;;;5.60;99.90;;;;;;2091351;28;20029;-71
2023/01/31 03:24:50;;;;;;;25.27;6.13;;;5.70;99.90;;;;;;2093368;28;20115;-71
2023/01/31 03:25:51;;;;;;;29.23;7.55;;;5.70;99.90;;;;;;2092073;28;20025;-71
2023/01/31 03:26:54;;;;;;;25.38;6.70;;;5.70;99.90;;;;;;2090677;28;20032;-71
2023/01/31 03:27:58;;;;;;;26.70;6.18;;;5.70;99.90;;;;;;2093599;28;20531;-71
2023/01/31 03:29:02;;;;;;;23.45;6.57;;;5.80;99.90;;;;;;2085629;28;20083;-71
2023/01/31 03:30:14;;;;;;;25.98;6.20;;;5.70;99.90;;;;;;2095295;28;20083;-71
2023/01/31 03:31:19;;;;;;;22.40;5.93;;;5.80;99.90;;;;;;2095296;28;20020;-71
2023/01/31 03:32:26;;;;;;;21.58;6.25;;;5.80;99.90;;;;;;2092686;28;20104;-71
2023/01/31 03:33:35;;;;;;;25.00;6.85;;;5.80;99.90;;;;;;2093520;28;20029;-71
2023/01/31 03:34:35;;;;;;;21.25;6.18;;;5.80;99.90;;;;;;2091672;28;20039;-72
2023/01/31 03:35:38;;;;;;;29.48;5.82;;;5.80;99.90;;;;;;2093661;28;20059;-71
2023/01/31 03:37:08;;;;;;;28.67;6.45;;;5.80;99.90;;;;;;2093401;28;20066;-71
2023/01/31 03:38:26;;;;;;;30.98;7.72;;;5.80;99.90;;;;;;2087191;28;20040;-71
2023/01/31 03:39:52;;;;;;;30.05;6.75;;;5.80;99.90;;;;;;2091386;28;20424;-71
2023/01/31 03:41:00;;;;;;;27.75;6.20;;;5.80;99.90;;;;;;2093313;28;20381;-71
2023/01/31 03:42:08;;;;;;;23.40;6.78;;;5.80;99.90;;;;;;2091380;28;20029;-70
2023/01/31 03:43:31;;;;;;;28.27;7.18;;;5.80;99.90;;;;;;2090214;28;20021;-70
2023/01/31 03:44:52;;;;;;;25.38;7.15;;;5.80;99.90;;;;;;2092748;28;20090;-71
2023/01/31 03:45:58;;;;;;;25.63;6.65;;;5.80;99.90;;;;;;2093067;28;20106;-71
2023/01/31 03:47:07;;;;;;;25.80;7.32;;;5.80;99.90;;;;;;2092579;28;20020;-71
2023/01/31 03:48:13;;;;;;;31.33;9.18;;;5.80;99.90;;;;;;2092159;28;20119;-71
2023/01/31 03:49:16;;;;;;;28.98;8.82;;;5.80;99.90;;;;;;2092743;28;20029;-71
2023/01/31 03:50:28;;;;;;;29.65;7.50;;;5.80;99.90;;;;;;2091704;28;20524;-70
2023/01/31 03:51:32;;;;;;;25.50;7.50;;;5.90;99.90;;;;;;2091558;28;20045;-70
2023/01/31 03:52:39;;;;;;;25.92;7.20;;;5.90;99.90;;;;;;2092347;28;20054;-70
2023/01/31 03:53:46;;;;;;;19.05;7.07;;;5.90;99.90;;;;;;2092852;28;20790;-71
2023/01/31 03:54:52;;;;;;;31.42;6.85;;;5.90;99.90;;;;;;2094600;28;20755;-71
2023/01/31 03:56:19;;;;;;;29.35;7.45;;;5.90;99.90;;;;;;2090729;28;20025;-71
2023/01/31 03:57:31;;;;;;;24.85;7.57;;;5.90;99.90;;;;;;2091775;28;20028;-71
2023/01/31 03:58:37;;;;;;;24.15;6.97;;;5.90;99.90;;;;;;2091940;28;20479;-71
2023/01/31 03:59:40;;;;;;;26.77;6.72;;;5.90;99.90;;;;;;2090407;28;20491;-71
2023/01/31 04:00:42;;;;;;;20.50;6.80;;;5.90;99.90;;;;;;2092399;28;20023;-71
2023/01/31 04:01:47;;;;;;;25.35;6.95;;;5.90;99.90;;;;;;2093116;28;20025;-71
2023/01/31 04:02:52;;;;;;;30.27;6.85;;;5.90;99.90;;;;;;2091604;28;20029;-71
2023/01/31 04:03:59;;;;;;;27.73;6.50;;;5.90;99.90;;;;;;2092090;28;20027;-71
2023/01/31 04:05:11;;;;;;;25.48;6.38;;;5.80;99.90;;;;;;2091549;28;20472;-71
2023/01/31 04:06:12;;;;;;;27.55;7.47;;;5.90;99.90;;;;;;2094809;28;20559;-71
2023/01/31 04:07:13;;;;;;;24.80;6.72;;;5.80;99.90;;;;;;2095249;28;20404;-71
2023/01/31 04:08:13;;;;;;;25.25;7.05;;;5.80;99.90;;;;;;2092288;28;20029;-71
2023/01/31 04:09:15;;;;;;;24.83;6.88;;;5.90;99.90;;;;;;2091661;28;20063;-71
2023/01/31 04:10:18;;;;;;;22.88;5.85;;;5.90;99.90;;;;;;2090943;28;20041;-71
2023/01/31 04:11:22;;;;;;;23.20;5.95;;;5.90;99.90;;;;;;2092305;28;20068;-71
2023/01/31 04:12:22;;;;;;;25.48;6.68;;;5.80;99.90;;;;;;2092832;28;20036;-71
2023/01/31 04:13:23;;;;;;;28.55;7.68;;;5.80;99.90;;;;;;2090812;28;20025;-71
2023/01/31 04:14:23;;;;;;;21.45;6.00;;;5.80;99.90;;;;;;2092995;28;20043;-71
2023/01/31 04:15:24;;;;;;;29.75;6.40;;;5.80;99.90;;;;;;2092287;28;20028;-71
2023/01/31 04:16:25;;;;;;;24.60;6.32;;;5.80;99.90;;;;;;2091824;28;20029;-70
2023/01/31 04:17:25;;;;;;;30.75;6.93;;;5.80;99.90;;;;;;2093150;28;20535;-71
2023/01/31 04:18:26;;;;;;;26.13;6.20;;;5.80;99.90;;;;;;2093268;28;20045;-71
2023/01/31 04:19:26;;;;;;;27.77;6.82;;;5.80;99.90;;;;;;2092804;28;20029;-71
2023/01/31 04:20:27;;;;;;;21.05;6.32;;;5.80;99.90;;;;;;2091576;28;20021;-71
2023/01/31 04:21:27;;;;;;;26.38;6.18;;;5.80;99.90;;;;;;2091777;28;20029;-71
2023/01/31 04:22:28;;;;;;;30.52;6.25;;;5.80;99.90;;;;;;2092481;28;20465;-71
2023/01/31 04:23:28;;;;;;;22.30;5.88;;;5.80;99.90;;;;;;2091636;28;20135;-71
2023/01/31 04:24:29;;;;;;;26.65;6.93;;;5.80;99.90;;;;;;2093002;28;20032;-71
2023/01/31 04:25:29;;;;;;;22.70;6.10;;;5.80;99.90;;;;;;2093074;28;20037;-71
2023/01/31 04:26:30;;;;;;;25.73;7.15;;;5.80;99.90;;;;;;2092347;28;20395;-70
2023/01/31 04:27:30;;;;;;;31.45;7.00;;;5.80;99.90;;;;;;2091271;28;20106;-71
2023/01/31 04:28:31;;;;;;;21.05;6.90;;;5.80;99.90;;;;;;2090595;28;20067;-71
2023/01/31 04:29:31;;;;;;;27.05;6.60;;;5.80;99.90;;;;;;2092898;28;20037;-71
2023/01/31 04:30:32;;;;;;;27.52;6.75;;;5.80;99.90;;;;;;2093617;28;20357;-71
2023/01/31 04:31:32;;;;;;;32.92;7.57;;;5.80;99.90;;;;;;2094775;28;20104;-71
2023/01/31 04:32:33;;;;;;;23.75;6.97;;;5.80;99.90;;;;;;2093212;28;20024;-71
2023/01/31 04:33:33;;;;;;;29.52;8.20;;;5.80;99.90;;;;;;2090776;28;20440;-71
2023/01/31 04:34:34;;;;;;;25.13;7.13;;;5.80;99.90;;;;;;2094849;28;20162;-71
2023/01/31 04:35:34;;;;;;;24.42;7.03;;;5.80;99.90;;;;;;2095227;28;20032;-71
2023/01/31 04:36:35;;;;;;;26.77;7.32;;;5.80;99.90;;;;;;2088489;28;20744;-71
2023/01/31 04:37:36;;;;;;;23.70;6.93;;;5.80;99.90;;;;;;2092592;28;20028;-71
2023/01/31 04:38:36;;;;;;;27.33;7.57;;;5.80;99.90;;;;;;2090987;28;20119;-71
2023/01/31 04:39:37;;;;;;;26.13;7.13;;;5.80;99.90;;;;;;2091703;28;20939;-71
2023/01/31 04:40:37;;;;;;;28.02;7.60;;;5.80;99.90;;;;;;2092087;28;20479;-71
2023/01/31 04:41:38;;;;;;;22.20;7.00;;;5.90;99.90;;;;;;2090598;28;20037;-71
2023/01/31 04:42:38;;;;;;;24.60;6.95;;;5.80;99.90;;;;;;2093047;28;20028;-71
2023/01/31 04:43:39;;;;;;;25.75;7.47;;;5.90;99.90;;;;;;2090323;28;20556;-71
2023/01/31 04:44:39;;;;;;;27.70;8.30;;;5.80;99.90;;;;;;2091130;28;20785;-71
2023/01/31 04:45:40;;;;;;;27.58;7.07;;;5.90;99.90;;;;;;2091498;28;20562;-71
2023/01/31 04:46:41;;;;;;;25.70;7.88;;;5.90;99.90;;;;;;2090051;28;20021;-71
2023/01/31 04:47:42;;;;;;;29.40;7.90;;;5.90;99.90;;;;;;2090570;28;20032;-71
2023/01/31 04:48:42;;;;;;;29.27;7.93;;;5.90;99.90;;;;;;2092308;28;20035;-71
2023/01/31 04:49:43;;;;;;;25.52;7.05;;;5.90;99.90;;;;;;2091502;28;20095;-71
2023/01/31 04:50:44;;;;;;;27.35;8.23;;;5.90;99.90;;;;;;2093499;28;20093;-71
2023/01/31 04:51:44;;;;;;;25.17;7.85;;;5.90;99.90;;;;;;2090443;28;20017;-71
2023/01/31 04:52:49;;;;;;;29.88;8.10;;;5.90;99.90;;;;;;2090216;28;20020;-71
2023/01/31 04:53:49;;;;;;;24.75;7.57;;;5.90;99.90;;;;;;2092360;28;20028;-71
2023/01/31 04:54:50;;;;;;;25.55;8.77;;;5.90;99.90;;;;;;2084096;28;20535;-71
2023/01/31 04:55:54;;;;;;;28.45;8.55;;;5.90;99.90;;;;;;2089449;28;21805;-71
2023/01/31 04:56:54;;;;;;;22.15;7.75;;;5.90;99.90;;;;;;2093209;28;20043;-71
2023/01/31 04:57:55;;;;;;;26.45;7.95;;;5.90;99.90;;;;;;2092522;28;20010;-71
2023/01/31 04:58:55;;;;;;;32.30;8.68;;;5.90;99.90;;;;;;2091017;28;20767;-71
2023/01/31 04:59:56;;;;;;;24.17;8.00;;;5.90;99.90;;;;;;2090181;28;20178;-71
2023/01/31 05:00:56;;;;;;;25.95;8.43;;;5.90;99.90;;;;;;2089663;28;20025;-71
2023/01/31 05:01:57;;;;;;;20.88;7.55;;;5.90;99.90;;;;;;2093318;28;20105;-71
2023/01/31 05:02:57;;;;;;;25.75;7.82;;;5.90;99.90;;;;;;2092796;28;20025;-71
2023/01/31 05:03:58;;;;;;;27.88;9.07;;;5.90;99.90;;;;;;2091885;28;20024;-71
2023/01/31 05:04:59;;;;;;;30.98;9.68;;;5.90;99.90;;;;;;2092321;28;20140;-71
2023/01/31 05:05:59;;;;;;;28.45;8.40;;;5.90;99.90;;;;;;2092286;28;20033;-71
2023/01/31 05:07:00;;;;;;;25.38;8.85;;;5.90;99.90;;;;;;2090394;28;20104;-71
2023/01/31 05:08:00;;;;;;;27.75;8.88;;;5.90;99.90;;;;;;2091237;28;20032;-71
2023/01/31 05:09:01;;;;;;;27.85;8.65;;;5.90;99.90;;;;;;2090582;28;20641;-71
2023/01/31 05:10:01;;;;;;;26.40;8.57;;;5.90;99.90;;;;;;2088482;28;20143;-71
2023/01/31 05:11:04;;;;;;;26.88;9.70;;;5.90;99.90;;;;;;2091107;28;20021;-71
2023/01/31 05:12:06;;;;;;;27.90;8.25;;;5.90;99.90;;;;;;2090976;28;20108;-71
2023/01/31 05:13:07;;;;;;;28.48;8.98;;;5.90;99.90;;;;;;2092305;28;20104;-71
2023/01/31 05:14:08;;;;;;;28.33;9.02;;;5.90;99.90;;;;;;2092528;28;20535;-71
2023/01/31 05:15:10;;;;;;;29.17;8.70;;;5.90;99.90;;;;;;2095523;28;20875;-71
2023/01/31 05:16:11;;;;;;;31.05;8.75;;;5.90;99.90;;;;;;2091395;28;20057;-71
2023/01/31 05:17:11;;;;;;;21.30;7.60;;;6.00;99.90;;;;;;2091613;28;20079;-71
2023/01/31 05:18:12;;;;;;;29.25;9.27;;;5.90;99.90;;;;;;2093304;28;20104;-71
2023/01/31 05:19:14;;;;;;;30.63;8.65;;;6.00;99.90;;;;;;2090395;28;20075;-71
2023/01/31 05:20:15;;;;;;;24.95;8.30;;;6.00;99.90;;;;;;2090335;28;20110;-71
2023/01/31 05:21:15;;;;;;;23.08;7.80;;;6.00;99.90;;;;;;2092402;28;20028;-71
2023/01/31 05:22:16;;;;;;;26.10;8.27;;;6.00;99.90;;;;;;2092276;28;20113;-71
2023/01/31 05:23:18;;;;;;;29.33;9.48;;;6.00;99.90;;;;;;2090402;28;20569;-71
2023/01/31 05:24:19;;;;;;;32.22;9.43;;;6.00;99.90;;;;;;2091340;28;20036;-71
2023/01/31 05:25:19;;;;;;;31.30;9.65;;;6.10;99.90;;;;;;2090814;28;20028;-71
2023/01/31 05:26:20;;;;;;;27.80;8.93;;;6.00;99.90;;;;;;2092255;28;20021;-71
2023/01/31 05:27:20;;;;;;;29.35;9.20;;;6.10;99.90;;;;;;2091264;28;20024;-71
2023/01/31 05:28:21;;;;;;;26.35;9.40;;;6.10;99.90;;;;;;2090758;28;20039;-71
2023/01/31 05:29:22;;;;;;;26.58;9.75;;;6.00;99.90;;;;;;2092027;28;20098;-71
2023/01/31 05:30:23;;;;;;;28.70;9.65;;;6.10;99.90;;;;;;2090795;28;20079;-71
2023/01/31 05:31:24;;;;;;;29.88;9.68;;;6.10;99.90;;;;;;2094211;28;20025;-71
2023/01/31 05:32:24;;;;;;;30.25;10.07;;;6.10;99.90;;;;;;2094420;28;20036;-71
2023/01/31 05:33:26;;;;;;;23.58;8.20;;;6.10;99.90;;;;;;2092222;28;20729;-71
2023/01/31 05:34:29;;;;;;;29.92;9.93;;;6.10;99.90;;;;;;2092050;28;20400;-71
2023/01/31 05:35:29;;;;;;;25.92;8.98;;;6.10;99.90;;;;;;2090738;28;20382;-71
2023/01/31 05:36:30;;;;;;;26.63;9.65;;;6.10;99.90;;;;;;2092057;28;20064;-71
2023/01/31 05:37:30;;;;;;;32.58;9.57;;;6.10;99.90;;;;;;2091442;28;20063;-71
2023/01/31 05:38:31;;;;;;;31.27;10.77;;;6.10;99.90;;;;;;2091385;28;20033;-71
2023/01/31 05:39:32;;;;;;;29.83;9.82;;;6.10;99.90;;;;;;2090186;28;20036;-71
2023/01/31 05:40:32;;;;;;;33.00;9.85;;;6.10;99.90;;;;;;2092974;28;20055;-71
2023/01/31 05:41:33;;;;;;;28.85;9.48;;;6.10;99.90;;;;;;2092364;28;20027;-71
2023/01/31 05:42:33;;;;;;;35.72;9.93;;;6.20;99.90;;;;;;2091715;28;20499;-71
2023/01/31 05:43:34;;;;;;;30.50;9.00;;;6.20;99.90;;;;;;2091309;28;20060;-71
2023/01/31 05:44:34;;;;;;;35.75;10.60;;;6.20;99.90;;;;;;2091645;28;20472;-71
2023/01/31 05:45:35;;;;;;;27.35;8.38;;;6.20;99.90;;;;;;2091777;28;20025;-71
2023/01/31 05:46:36;;;;;;;28.83;10.63;;;6.20;99.90;;;;;;2089578;28;20104;-71
2023/01/31 05:47:36;;;;;;;28.40;9.50;;;6.20;99.90;;;;;;2091617;28;20105;-71
2023/01/31 05:48:37;;;;;;;33.72;11.02;;;6.20;99.90;;;;;;2091883;28;20051;-71
2023/01/31 05:49:38;;;;;;;37.42;11.30;;;6.20;99.90;;;;;;2090319;28;20028;-71
2023/01/31 05:50:38;;;;;;;37.08;11.50;;;6.20;99.90;;;;;;2090533;28;20039;-71
2023/01/31 05:51:40;;;;;;;45.55;12.00;;;6.20;99.90;;;;;;2090914;28;20033;-71
2023/01/31 05:52:40;;;;;;;47.15;12.48;;;6.20;99.90;;;;;;2090677;28;20032;-71
2023/01/31 05:53:41;;;;;;;40.10;11.85;;;6.20;99.90;;;;;;2090998;28;20029;-71
2023/01/31 05:54:41;;;;;;;42.80;12.38;;;6.20;99.90;;;;;;2089234;28;20029;-72
2023/01/31 05:55:43;;;;;;;39.53;11.45;;;6.20;99.90;;;;;;2090170;28;20461;-71
2023/01/31 05:56:43;;;;;;;39.95;11.88;;;6.20;99.90;;;;;;2093237;28;20024;-71
2023/01/31 05:57:44;;;;;;;34.40;11.68;;;6.20;99.90;;;;;;2093526;28;20552;-71
2023/01/31 05:58:49;;;;;;;39.88;11.80;;;6.20;99.90;;;;;;2092263;28;20699;-71
2023/01/31 05:59:49;;;;;;;36.72;11.25;;;6.20;99.90;;;;;;2089728;28;20035;-71
2023/01/31 06:00:55;;;;;;;37.17;12.10;;;6.20;99.90;;;;;;2091446;28;20551;-71
2023/01/31 06:01:55;;;;;;;31.63;10.98;;;6.20;99.90;;;;;;2092916;28;20035;-71
2023/01/31 06:02:57;;;;;;;29.58;11.02;;;6.20;99.90;;;;;;2090783;28;20029;-71
2023/01/31 06:03:57;;;;;;;33.38;11.23;;;6.20;99.90;;;;;;2089741;28;20029;-71
2023/01/31 06:04:58;;;;;;;33.42;11.15;;;6.20;99.90;;;;;;2092761;28;20017;-71
2023/01/31 06:05:59;;;;;;;28.38;9.27;;;6.20;99.90;;;;;;2091035;28;20028;-71
2023/01/31 06:06:59;;;;;;;23.92;9.50;;;6.20;99.90;;;;;;2089504;28;20048;-71
2023/01/31 06:08:00;;;;;;;29.33;9.55;;;6.20;99.90;;;;;;2093344;28;20028;-71
2023/01/31 06:09:00;;;;;;;28.95;10.32;;;6.20;99.90;;;;;;2094332;28;20055;-71
2023/01/31 06:10:02;;;;;;;27.73;10.15;;;6.20;99.90;;;;;;2093839;28;20025;-71
2023/01/31 06:11:06;;;;;;;32.35;11.43;;;6.20;99.90;;;;;;2092478;28;20730;-71
2023/01/31 06:12:13;;;;;;;37.22;11.43;;;6.20;99.90;;;;;;2091555;28;20388;-71
2023/01/31 06:13:14;;;;;;;27.58;9.00;;;6.20;99.90;;;;;;2093786;28;20027;-71
2023/01/31 06:14:14;;;;;;;30.05;10.82;;;6.20;99.90;;;;;;2095050;28;20114;-71
2023/01/31 06:15:15;;;;;;;30.70;10.45;;;6.20;99.90;;;;;;2089694;28;20037;-71
2023/01/31 06:16:16;;;;;;;27.90;10.35;;;6.20;99.90;;;;;;2090749;28;20465;-71